Terminal Aerodrome Forecast
Issued by NWS

Home | Current Version | Previous Version | Text Only | Print | Product List | Glossary On
Versions: 1 2 3 4 5 6 7 8 9 10 11 12 13 14 15 16 17 18 19 20
000
FTUS43 KAPX 241139
TAFAPN
TAF
KAPN 241139Z 2412/2512 17010KT P6SM -SHRA OVC060
     FM241500 18014KT P6SM OVC050
     FM241800 20011KT P6SM BKN050
     FM242100 21009KT P6SM SCT060
     FM250100 23008KT P6SM VCTS BKN060CB
     FM250500 26005KT P6SM SCT035=

USA.gov is the U.S. government's official web portal to all federal, state and local government web resources and services.